createdAt,value
2022-12-01T00:00:25.749Z,96994.75
2022-12-01T00:02:52.519Z,96988.41
2022-12-01T00:05:19.232Z,96999.94
2022-12-01T00:07:48.540Z,96987.50
2022-12-01T00:10:15.268Z,96989.00
2022-12-01T00:12:41.900Z,96991.22
2022-12-01T00:15:08.589Z,96973.06
2022-12-01T00:17:35.253Z,96982.13
2022-12-01T00:20:01.882Z,96977.50
2022-12-01T00:22:28.635Z,96973.31
2022-12-01T00:24:55.250Z,96975.44
2022-12-01T00:27:21.865Z,96973.31
2022-12-01T00:29:48.773Z,96972.94
2022-12-01T00:32:15.560Z,96967.75
2022-12-01T00:34:42.257Z,96971.94
2022-12-01T00:37:08.892Z,96971.25
2022-12-01T00:39:35.523Z,96969.97
2022-12-01T00:42:02.166Z,96965.94
2022-12-01T00:44:28.788Z,96984.22
2022-12-01T00:46:55.412Z,96969.28
2022-12-01T00:49:22.034Z,96982.03
2022-12-01T00:51:49.548Z,96987.34
2022-12-01T00:54:16.198Z,96967.19
2022-12-01T00:56:43.194Z,96984.56
2022-12-01T00:59:09.856Z,96990.16
2022-12-01T01:01:36.565Z,96987.34
2022-12-01T01:04:03.225Z,96986.66
2022-12-01T01:06:29.898Z,96995.69
2022-12-01T01:08:56.548Z,96997.13
2022-12-01T01:11:23.192Z,97001.72
2022-12-01T01:13:49.813Z,97011.47
2022-12-01T01:16:20.656Z,96996.41
2022-12-01T01:18:47.584Z,97001.72
2022-12-01T01:21:16.140Z,97011.81
2022-12-01T01:23:42.884Z,97010.59
2022-12-01T01:26:17.174Z,97017.41
2022-12-01T01:28:43.957Z,97001.34
2022-12-01T01:31:12.307Z,97008.75
2022-12-01T01:33:39.059Z,97016.72
2022-12-01T01:36:05.957Z,97010.78
2022-12-01T01:38:32.904Z,97011.47
2022-12-01T01:40:59.577Z,97011.41
2022-12-01T01:43:39.438Z,97008.78
2022-12-01T01:46:06.280Z,97012.94
2022-12-01T01:48:33.818Z,97013.41
2022-12-01T01:51:00.921Z,97003.72
2022-12-01T01:53:27.602Z,97014.94
2022-12-01T01:55:54.234Z,97008.06
2022-12-01T01:58:20.862Z,97006.81
2022-12-01T02:00:47.508Z,97001.06
2022-12-01T02:03:16.250Z,97004.16
2022-12-01T02:05:42.873Z,97011.97
2022-12-01T02:08:09.614Z,96991.56
2022-12-01T02:11:11.501Z,97010.47
2022-12-01T02:14:06.279Z,97009.19
2022-12-01T02:16:49.566Z,97013.66
2022-12-01T02:19:43.048Z,97007.97
2022-12-01T02:22:28.481Z,97008.06
2022-12-01T02:25:14.268Z,97003.03
2022-12-01T02:28:01.806Z,96996.34
2022-12-01T02:30:43.715Z,97003.19
2022-12-01T02:33:28.581Z,97001.63
2022-12-01T02:36:11.262Z,97004.16
2022-12-01T02:38:59.747Z,97001.38
2022-12-01T02:41:29.098Z,97008.66
2022-12-01T02:44:16.829Z,97004.03
2022-12-01T02:46:52.113Z,96999.28
2022-12-01T02:49:20.949Z,97003.91
2022-12-01T02:51:47.574Z,97012.13
2022-12-01T02:54:14.541Z,97007.66
2022-12-01T02:56:43.355Z,97012.13
2022-12-01T02:59:13.668Z,97010.44
2022-12-01T03:02:09.684Z,97007.78
2022-12-01T03:04:45.437Z,97017.59
2022-12-01T03:07:45.141Z,97007.38
2022-12-01T03:10:42.251Z,97009.06
2022-12-01T03:13:19.242Z,97019.28
2022-12-01T03:15:53.453Z,97004.16
2022-12-01T03:18:25.990Z,97003.50
2022-12-01T03:21:06.459Z,96993.56
2022-12-01T03:23:35.390Z,97005.19
2022-12-01T03:26:03.210Z,96999.25
2022-12-01T03:28:31.136Z,97001.63
2022-12-01T03:31:00.406Z,96997.72
2022-12-01T03:33:36.553Z,96992.69
2022-12-01T03:36:11.709Z,96999.81
2022-12-01T03:38:38.474Z,97002.75
2022-12-01T03:41:10.649Z,96991.84
2022-12-01T03:43:40.853Z,96995.50
2022-12-01T03:46:08.493Z,96996.31
2022-12-01T03:48:35.189Z,96996.06
2022-12-01T03:51:01.729Z,96994.78
2022-12-01T03:53:29.865Z,96994.06
2022-12-01T03:56:01.278Z,97005.81
2022-12-01T03:58:31.124Z,97005.00
2022-12-01T04:00:57.764Z,97004.16
2022-12-01T04:03:24.968Z,97010.59
2022-12-01T04:05:51.601Z,97012.41
2022-12-01T04:08:18.264Z,97010.31
2022-12-01T04:10:44.908Z,97013.97
2022-12-01T04:13:11.549Z,97016.63
2022-12-01T04:15:38.197Z,97015.94
2022-12-01T04:18:05.142Z,97019.81
2022-12-01T04:20:31.770Z,97028.63
2022-12-01T04:22:58.388Z,97028.09
2022-12-01T04:25:25.138Z,97027.66
2022-12-01T04:27:51.755Z,97032.44
2022-12-01T04:30:18.401Z,97033.13
2022-12-01T04:32:45.130Z,97034.53
2022-12-01T04:35:11.987Z,97035.78
2022-12-01T04:37:39.015Z,97027.66
2022-12-01T04:40:06.198Z,97030.75
2022-12-01T04:42:32.814Z,97024.06
2022-12-01T04:44:59.442Z,97036.59
2022-12-01T04:47:26.082Z,97037.44
2022-12-01T04:49:52.742Z,97030.06
2022-12-01T04:52:19.360Z,97027.66
2022-12-01T04:54:45.961Z,97031.72
2022-12-01T04:57:12.595Z,97032.41
2022-12-01T04:59:39.296Z,97026.25
2022-12-01T05:02:06.026Z,97034.78
2022-12-01T05:04:32.826Z,97029.44
2022-12-01T05:06:59.472Z,97023.31
2022-12-01T05:09:26.116Z,97029.75
2022-12-01T05:11:52.730Z,97028.38
2022-12-01T05:14:19.386Z,97015.78
2022-12-01T05:16:46.091Z,97018.59
2022-12-01T05:19:12.813Z,97017.47
2022-12-01T05:21:40.206Z,97024.19
2022-12-01T05:24:07.093Z,97026.13
2022-12-01T05:26:33.713Z,97018.00
2022-12-01T05:29:00.351Z,97021.50
2022-12-01T05:31:27.058Z,97018.84
2022-12-01T05:33:53.706Z,97020.28
2022-12-01T05:36:20.342Z,97032.13
2022-12-01T05:38:46.977Z,97020.69
2022-12-01T05:41:13.657Z,97023.47
2022-12-01T05:43:40.280Z,97020.97
2022-12-01T05:46:06.981Z,97021.41
2022-12-01T05:48:34.498Z,97018.88
2022-12-01T05:51:10.414Z,97027.56
2022-12-01T05:53:37.047Z,97028.66
2022-12-01T05:56:03.904Z,97031.59
2022-12-01T05:58:30.535Z,97027.72
2022-12-01T06:00:57.212Z,97040.16
2022-12-01T06:03:23.850Z,97026.72
2022-12-01T06:05:50.478Z,97022.53
2022-12-01T06:08:17.099Z,97028.66
2022-12-01T06:10:44.263Z,97019.59
2022-12-01T06:13:10.890Z,97021.69
2022-12-01T06:15:37.534Z,97016.38
2022-12-01T06:18:04.191Z,97019.88
2022-12-01T06:20:30.832Z,97027.84
2022-12-01T06:22:57.469Z,97022.28
2022-12-01T06:25:24.108Z,97017.22
2022-12-01T06:27:50.735Z,97028.81
2022-12-01T06:30:17.355Z,97031.47
2022-12-01T06:32:44.015Z,97026.31
2022-12-01T06:35:10.666Z,97031.34
2022-12-01T06:37:37.279Z,97035.41
2022-12-01T06:40:04.161Z,97039.28
2022-12-01T06:42:30.779Z,97029.09
2022-12-01T06:44:57.418Z,97048.94
2022-12-01T06:47:25.098Z,97047.00
2022-12-01T06:49:52.140Z,97035.25
2022-12-01T06:52:18.866Z,97052.31
2022-12-01T06:54:46.331Z,97047.13
2022-12-01T06:57:13.390Z,97057.91
2022-12-01T06:59:40.256Z,97054.53
2022-12-01T07:02:10.419Z,97057.91
2022-12-01T07:04:37.092Z,97061.09
2022-12-01T07:07:05.094Z,97065.28
2022-12-01T07:09:31.750Z,97069.19
2022-12-01T07:11:58.410Z,97066.69
2022-12-01T07:14:25.582Z,97062.63
2022-12-01T07:16:52.334Z,97056.75
2022-12-01T07:19:19.001Z,97067.22
2022-12-01T07:21:45.656Z,97061.22
2022-12-01T07:24:12.366Z,97068.47
2022-12-01T07:26:39.181Z,97069.34
2022-12-01T07:29:05.814Z,97080.22
2022-12-01T07:31:32.482Z,97069.19
2022-12-01T07:33:59.150Z,97067.91
2022-12-01T07:36:25.790Z,97069.34
2022-12-01T07:38:52.491Z,97074.75
2022-12-01T07:41:19.278Z,97069.75
2022-12-01T07:43:45.971Z,97083.31
2022-12-01T07:46:23.150Z,97072.69
2022-12-01T07:48:50.692Z,97077.16
2022-12-01T07:51:17.384Z,97076.41
2022-12-01T07:53:47.815Z,97068.75
2022-12-01T07:56:15.142Z,97073.63
2022-12-01T07:58:41.910Z,97083.41
2022-12-01T08:01:09.707Z,97076.03
2022-12-01T08:03:36.913Z,97079.22
2022-12-01T08:06:04.097Z,97085.94
2022-12-01T08:08:31.517Z,97079.50
2022-12-01T08:11:02.623Z,97086.03
2022-12-01T08:13:29.662Z,97082.56
2022-12-01T08:15:56.548Z,97077.09
2022-12-01T08:18:23.387Z,97081.56
2022-12-01T08:20:50.615Z,97081.31
2022-12-01T08:23:17.266Z,97077.91
2022-12-01T08:25:44.081Z,97084.78
2022-12-01T08:28:10.716Z,97077.38
2022-12-01T08:30:37.349Z,97072.75
2022-12-01T08:33:04.376Z,97077.38
2022-12-01T08:35:31.221Z,97088.84
2022-12-01T08:37:57.842Z,97086.47
2022-12-01T08:40:24.810Z,97084.53
2022-12-01T08:42:52.084Z,97080.59
2022-12-01T08:45:18.739Z,97084.09
2022-12-01T08:47:45.395Z,97084.09
2022-12-01T08:50:12.078Z,97073.72
2022-12-01T08:52:38.702Z,97080.88
2022-12-01T08:55:05.811Z,97074.00
2022-12-01T08:57:32.555Z,97073.84
2022-12-01T08:59:59.200Z,97077.44
2022-12-01T09:02:25.980Z,97084.44
2022-12-01T09:04:52.656Z,97089.75
2022-12-01T09:07:24.639Z,97091.41
2022-12-01T09:09:52.957Z,97083.25
2022-12-01T09:12:19.596Z,97089.41
2022-12-01T09:14:46.239Z,97095.75
2022-12-01T09:17:12.869Z,97088.03
2022-12-01T09:19:39.518Z,97096.44
2022-12-01T09:22:06.150Z,97101.75
2022-12-01T09:24:32.784Z,97109.34
2022-12-01T09:26:59.553Z,97099.38
2022-12-01T09:29:26.214Z,97095.59
2022-12-01T09:31:55.652Z,97101.03
2022-12-01T09:34:22.283Z,97099.75
2022-12-01T09:36:48.927Z,97102.69
2022-12-01T09:39:17.315Z,97108.31
2022-12-01T09:41:45.033Z,97095.16
2022-12-01T09:44:16.118Z,97104.06
2022-12-01T09:46:53.155Z,97106.59
2022-12-01T09:49:25.248Z,97101.31
2022-12-01T09:51:52.828Z,97101.16
2022-12-01T09:54:19.470Z,97103.81
2022-12-01T09:56:47.717Z,97104.66
2022-12-01T09:59:18.525Z,97099.19
2022-12-01T10:01:46.580Z,97105.19
2022-12-01T10:04:37.705Z,97098.72
2022-12-01T10:07:15.298Z,97098.72
2022-12-01T10:10:11.680Z,97103.22
2022-12-01T10:12:38.356Z,97094.66
2022-12-01T10:15:33.110Z,97093.56
2022-12-01T10:18:34.965Z,97092.56
2022-12-01T10:21:03.903Z,97091.16
2022-12-01T10:23:49.308Z,97085.53
2022-12-01T10:26:29.981Z,97087.81
2022-12-01T10:29:09.967Z,97083.75
2022-12-01T10:31:40.767Z,97087.25
2022-12-01T10:34:18.061Z,97086.00
2022-12-01T10:36:44.711Z,97082.75
2022-12-01T10:39:19.908Z,97086.34
2022-12-01T10:41:47.471Z,97076.91
2022-12-01T10:44:14.100Z,97087.19
2022-12-01T10:46:50.222Z,97076.69
2022-12-01T10:49:17.709Z,97079.88
2022-12-01T10:51:46.924Z,97073.31
2022-12-01T10:54:13.550Z,97068.16
2022-12-01T10:56:40.359Z,97068.88
2022-12-01T10:59:24.925Z,97075.28
2022-12-01T11:01:51.741Z,97077.44
2022-12-01T11:04:46.104Z,97072.09
2022-12-01T11:07:20.454Z,97054.91
2022-12-01T11:09:48.998Z,97058.41
2022-12-01T11:12:17.171Z,97062.00
2022-12-01T11:14:49.082Z,97060.88
2022-12-01T11:17:40.846Z,97059.72
2022-12-01T11:20:26.195Z,97060.53
2022-12-01T11:22:53.230Z,97058.88
2022-12-01T11:25:20.864Z,97057.16
2022-12-01T11:27:52.330Z,97050.00
2022-12-01T11:30:26.898Z,97046.84
2022-12-01T11:32:57.472Z,97050.72
2022-12-01T11:35:25.784Z,97046.31
2022-12-01T11:38:27.883Z,97046.16
2022-12-01T11:40:51.283Z,97041.97
2022-12-01T11:43:28.857Z,97053.72
2022-12-01T11:45:56.840Z,97053.94
2022-12-01T11:48:30.598Z,97058.88
2022-12-01T11:51:27.347Z,97045.09
2022-12-01T11:54:14.675Z,97047.31
2022-12-01T11:56:41.604Z,97042.06
2022-12-01T11:59:20.312Z,97050.88
2022-12-01T12:01:56.368Z,97045.31
2022-12-01T12:04:45.619Z,97045.41
2022-12-01T12:07:40.173Z,97042.59
2022-12-01T12:10:23.475Z,97038.06
2022-12-01T12:13:22.282Z,97044.13
2022-12-01T12:15:57.805Z,97036.06
2022-12-01T12:18:55.381Z,97040.09
2022-12-01T12:21:38.155Z,97036.06
2022-12-01T12:24:07.709Z,97040.25
2022-12-01T12:27:00.135Z,97031.19
2022-12-01T12:29:51.975Z,97020.78
2022-12-01T12:32:46.440Z,97031.19
2022-12-01T12:35:25.026Z,97027.25
2022-12-01T12:38:05.418Z,97027.53
2022-12-01T12:40:47.036Z,97021.41
2022-12-01T12:43:47.018Z,97026.50
2022-12-01T12:46:38.258Z,97019.34
2022-12-01T12:49:26.739Z,97016.53
2022-12-01T12:52:13.030Z,97010.72
2022-12-01T12:54:43.222Z,97017.66
2022-12-01T12:57:31.315Z,97018.66
2022-12-01T13:00:04.319Z,97008.31
2022-12-01T13:02:52.312Z,97017.88
2022-12-01T13:05:23.165Z,97008.78
2022-12-01T13:08:01.781Z,97010.88
2022-12-01T13:10:37.086Z,97014.38
2022-12-01T13:13:30.968Z,97008.28
2022-12-01T13:15:58.000Z,97005.88
2022-12-01T13:18:29.133Z,97003.28
2022-12-01T13:20:56.024Z,97006.41
2022-12-01T13:23:22.682Z,97006.72
2022-12-01T13:25:51.769Z,96997.28
2022-12-01T13:28:29.259Z,97004.63
2022-12-01T13:31:04.467Z,97002.47
2022-12-01T13:33:31.228Z,97000.31
2022-12-01T13:36:29.928Z,97006.41
2022-12-01T13:38:44.543Z,97002.97
2022-12-01T13:41:24.427Z,97006.88
2022-12-01T13:44:02.516Z,97004.03
2022-12-01T13:46:44.310Z,96998.41
2022-12-01T13:49:47.250Z,97006.63
2022-12-01T13:52:23.036Z,97000.78
2022-12-01T13:55:09.801Z,97000.00
2022-12-01T13:57:44.285Z,97002.91
2022-12-01T14:00:25.976Z,97007.84
2022-12-01T14:03:14.577Z,96998.66
2022-12-01T14:05:53.120Z,97002.47
2022-12-01T14:08:24.367Z,96995.38
2022-12-01T14:10:56.840Z,97001.38
2022-12-01T14:13:23.506Z,97002.09
2022-12-01T14:15:57.626Z,97004.44
2022-12-01T14:18:34.114Z,97003.38
2022-12-01T14:21:01.950Z,97000.59
2022-12-01T14:23:30.972Z,96998.63
2022-12-01T14:26:01.029Z,96997.88
2022-12-01T14:28:55.214Z,97006.72
2022-12-01T14:31:22.684Z,97006.88
2022-12-01T14:33:50.802Z,97001.84
2022-12-01T14:36:23.274Z,97002.56
2022-12-01T14:38:50.077Z,97014.72
2022-12-01T14:41:24.665Z,97000.75
2022-12-01T14:43:57.656Z,97001.44
2022-12-01T14:46:24.667Z,97007.75
2022-12-01T14:48:51.367Z,97016.03
2022-12-01T14:51:28.657Z,97004.09
2022-12-01T14:53:55.864Z,97008.06
2022-12-01T14:56:24.047Z,97006.91
2022-12-01T14:58:58.701Z,97006.75
2022-12-01T15:01:33.858Z,97000.91
2022-12-01T15:04:02.025Z,97005.53
2022-12-01T15:06:28.998Z,97007.97
2022-12-01T15:12:03.980Z,97011.63
2022-12-01T15:14:37.529Z,97009.16
2022-12-01T15:17:04.934Z,97003.59
2022-12-01T15:19:35.885Z,97004.84
2022-12-01T15:22:11.488Z,97007.88
2022-12-01T15:24:38.108Z,97008.41
2022-12-01T15:27:04.757Z,97003.06
2022-12-01T15:29:42.495Z,97009.69
2022-12-01T15:32:11.452Z,97014.03
2022-12-01T15:34:42.015Z,97015.38
2022-12-01T15:37:20.491Z,97015.22
2022-12-01T15:40:54.189Z,97010.47
2022-12-01T15:43:06.384Z,97012.88
2022-12-01T15:45:42.756Z,97022.56
2022-12-01T15:48:17.166Z,97014.91
2022-12-01T15:50:46.590Z,97018.56
2022-12-01T15:53:30.694Z,97013.41
2022-12-01T15:55:59.268Z,97019.81
2022-12-01T15:58:27.822Z,97018.59
2022-12-01T16:01:01.980Z,97020.81
2022-12-01T16:03:28.689Z,97022.63
2022-12-01T16:05:55.546Z,97017.63
2022-12-01T16:08:24.303Z,97020.28
2022-12-01T16:11:10.050Z,97019.28
2022-12-01T16:14:00.550Z,97019.88
2022-12-01T16:16:46.351Z,97023.81
2022-12-01T16:19:12.956Z,97021.59
2022-12-01T16:21:49.200Z,97026.66
2022-12-01T16:24:20.968Z,97030.00
2022-12-01T16:26:48.285Z,97031.28
2022-12-01T16:29:19.403Z,97029.78
2022-12-01T16:32:12.449Z,97032.16
2022-12-01T16:34:46.000Z,97025.19
2022-12-01T16:37:13.694Z,97031.63
2022-12-01T16:39:40.387Z,97038.03
2022-12-01T16:42:07.147Z,97034.28
2022-12-01T16:44:33.865Z,97028.00
2022-12-01T16:47:00.496Z,97030.22
2022-12-01T16:49:27.217Z,97033.16
2022-12-01T16:51:56.455Z,97040.13
2022-12-01T16:54:23.645Z,97033.44
2022-12-01T16:56:50.265Z,97035.66
2022-12-01T16:59:16.908Z,97036.22
2022-12-01T17:01:43.646Z,97035.16
2022-12-01T17:04:10.515Z,97034.31
2022-12-01T17:06:37.634Z,97029.28
2022-12-01T17:09:04.544Z,97034.72
2022-12-01T17:11:31.221Z,97031.94
2022-12-01T17:13:57.868Z,97027.41
2022-12-01T17:16:24.531Z,97030.06
2022-12-01T17:18:51.189Z,97032.50
2022-12-01T17:21:17.849Z,97033.91
2022-12-01T17:23:44.481Z,97038.22
2022-12-01T17:26:12.871Z,97028.84
2022-12-01T17:28:39.504Z,97026.75
2022-12-01T17:31:06.693Z,97025.38
2022-12-01T17:33:33.802Z,97031.13
2022-12-01T17:36:04.673Z,97030.69
2022-12-01T17:38:33.667Z,97033.66
2022-12-01T17:41:07.476Z,97035.72
2022-12-01T17:43:34.695Z,97026.91
2022-12-01T17:46:01.377Z,97030.41
2022-12-01T17:48:28.187Z,97034.72
2022-12-01T17:50:54.827Z,97028.59
2022-12-01T17:53:21.496Z,97026.69
2022-12-01T17:55:48.138Z,97038.25
2022-12-01T17:58:15.818Z,97034.06
2022-12-01T18:00:42.459Z,97035.88
2022-12-01T18:03:09.679Z,97045.28
2022-12-01T18:05:36.401Z,97038.25
2022-12-01T18:08:03.114Z,97034.91
2022-12-01T18:10:29.788Z,97038.28
2022-12-01T18:12:56.433Z,97045.56
2022-12-01T18:15:23.061Z,97049.63
2022-12-01T18:17:49.762Z,97044.31
2022-12-01T18:20:16.411Z,97042.19
2022-12-01T18:22:43.045Z,97045.16
2022-12-01T18:25:09.690Z,97043.19
2022-12-01T18:27:36.338Z,97047.22
2022-12-01T18:30:03.533Z,97044.16
2022-12-01T18:32:30.153Z,97046.97
2022-12-01T18:34:57.090Z,97043.19
2022-12-01T18:37:23.728Z,97034.41
2022-12-01T18:39:50.361Z,97032.28
2022-12-01T18:42:17.005Z,97029.94
2022-12-01T18:44:43.653Z,97029.78
2022-12-01T18:47:10.374Z,97031.75
2022-12-01T18:49:37.034Z,97031.72
2022-12-01T18:52:03.677Z,97030.88
2022-12-01T18:54:30.342Z,97034.78
2022-12-01T18:56:56.983Z,97029.91
2022-12-01T18:59:23.600Z,97027.56
2022-12-01T19:01:50.288Z,97031.19
2022-12-01T19:04:16.973Z,97033.41
2022-12-01T19:06:44.207Z,97028.97
2022-12-01T19:09:12.015Z,97028.25
2022-12-01T19:11:38.874Z,97028.25
2022-12-01T19:14:05.511Z,97035.53
2022-12-01T19:16:32.196Z,97031.47
2022-12-01T19:19:00.094Z,97033.28
2022-12-01T19:21:26.768Z,97024.50
2022-12-01T19:23:53.411Z,97027.16
2022-12-01T19:26:21.201Z,97026.59
2022-12-01T19:28:47.932Z,97023.25
2022-12-01T19:31:19.707Z,97025.91
2022-12-01T19:33:46.805Z,97021.00
2022-12-01T19:36:15.241Z,97029.66
2022-12-01T19:38:41.859Z,97026.44
2022-12-01T19:41:08.740Z,97032.19
2022-12-01T19:43:35.520Z,97029.66
2022-12-01T19:46:09.426Z,97030.38
2022-12-01T19:48:36.132Z,97034.69
2022-12-01T19:51:02.868Z,97038.19
2022-12-01T19:53:33.628Z,97035.50
2022-12-01T19:56:01.848Z,97037.06
2022-12-01T19:58:28.493Z,97047.38
2022-12-01T20:00:55.197Z,97038.56
2022-12-01T20:03:21.826Z,97042.22
2022-12-01T20:05:48.467Z,97042.22
2022-12-01T20:08:15.078Z,97042.22
2022-12-01T20:10:48.080Z,97048.34
2022-12-01T20:13:14.694Z,97044.72
2022-12-01T20:15:41.326Z,97046.97
2022-12-01T20:18:07.940Z,97052.53
2022-12-01T20:20:34.578Z,97050.84
2022-12-01T20:23:01.325Z,97054.63
2022-12-01T20:25:27.958Z,97054.50
2022-12-01T20:27:54.653Z,97061.22
2022-12-01T20:30:21.268Z,97056.19
2022-12-01T20:32:48.731Z,97055.63
2022-12-01T20:35:15.391Z,97056.63
2022-12-01T20:37:42.023Z,97057.28
2022-12-01T20:40:09.127Z,97054.38
2022-12-01T20:42:35.785Z,97053.13
2022-12-01T20:45:02.453Z,97052.16
2022-12-01T20:47:29.078Z,97058.84
2022-12-01T20:49:58.439Z,97051.88
2022-12-01T20:52:25.276Z,97057.59
2022-12-01T20:54:52.109Z,97052.59
2022-12-01T20:57:18.985Z,97061.78
2022-12-01T20:59:45.603Z,97053.28
2022-12-01T21:02:12.516Z,97044.88
2022-12-01T21:04:39.146Z,97050.19
2022-12-01T21:07:05.827Z,97056.47
2022-12-01T21:09:32.446Z,97051.31
2022-12-01T21:11:59.060Z,97060.81
2022-12-01T21:14:52.236Z,97051.47
2022-12-01T21:17:31.906Z,97051.19
2022-12-01T21:20:03.297Z,97054.25
2022-12-01T21:22:30.109Z,97057.91
2022-12-01T21:25:10.342Z,97061.09
2022-12-01T21:27:37.529Z,97058.59
2022-12-01T21:30:14.187Z,97052.59
2022-12-01T21:32:43.893Z,97051.88
2022-12-01T21:35:16.708Z,97046.16
2022-12-01T21:37:43.356Z,97043.50
2022-12-01T21:40:25.746Z,97040.31
2022-12-01T21:42:52.467Z,97042.22
2022-12-01T21:45:22.583Z,97033.88
2022-12-01T21:47:49.222Z,97034.56
2022-12-01T21:50:19.487Z,97040.00
2022-12-01T21:52:46.274Z,97035.94
2022-12-01T21:55:15.765Z,97042.94
2022-12-01T21:57:49.924Z,97035.94
2022-12-01T22:00:23.293Z,97041.00
2022-12-01T22:02:51.777Z,97051.16
2022-12-01T22:05:26.939Z,97043.91
2022-12-01T22:07:59.064Z,97047.69
2022-12-01T22:10:59.826Z,97052.31
2022-12-01T22:13:49.970Z,97043.78
2022-12-01T22:16:30.285Z,97046.31
2022-12-01T22:19:01.197Z,97039.56
2022-12-01T22:21:37.576Z,97044.75
2022-12-01T22:24:10.084Z,97049.50
2022-12-01T22:26:42.414Z,97049.09
2022-12-01T22:29:31.187Z,97055.66
2022-12-01T22:32:07.034Z,97048.13
2022-12-01T22:34:33.863Z,97050.34
2022-12-01T22:37:00.683Z,97049.94
2022-12-01T22:39:30.701Z,97047.00
2022-12-01T22:41:58.815Z,97052.84
2022-12-01T22:44:26.262Z,97044.34
2022-12-01T22:46:59.900Z,97045.03
2022-12-01T22:49:26.907Z,97055.78
2022-12-01T22:52:24.630Z,97050.06
2022-12-01T22:54:51.613Z,97052.00
2022-12-01T22:57:26.745Z,97047.00
2022-12-01T22:59:53.402Z,97047.16
2022-12-01T23:02:29.752Z,97046.72
2022-12-01T23:04:59.885Z,97047.84
2022-12-01T23:07:29.316Z,97045.31
2022-12-01T23:09:57.873Z,97037.06
2022-12-01T23:12:32.224Z,97033.88
2022-12-01T23:15:07.309Z,97043.34
2022-12-01T23:17:33.980Z,97038.88
2022-12-01T23:20:33.450Z,97045.31
2022-12-01T23:23:02.500Z,97039.31
2022-12-01T23:25:29.312Z,97036.53
2022-12-01T23:27:59.137Z,97030.53
2022-12-01T23:30:25.810Z,97033.16
2022-12-01T23:33:10.679Z,97034.84
2022-12-01T23:35:50.892Z,97030.25
2022-12-01T23:38:24.126Z,97024.78
2022-12-01T23:40:51.847Z,97022.13
2022-12-01T23:43:25.916Z,97018.94
2022-12-01T23:46:12.368Z,97020.75
2022-12-01T23:48:48.434Z,97011.66
2022-12-01T23:51:20.292Z,97014.16
2022-12-01T23:53:46.945Z,97007.47
2022-12-01T23:56:19.744Z,97004.81
2022-12-01T23:58:46.527Z,97009.41
